Time;durP1;ratioP1;P1;durP2;ratioP2;P2;SDS_P1;SDS_P2;PMS_P1;PMS_P2;Temp;Humidity;BMP_temperature;BMP_pressure;BME280_temperature;BME280_humidity;BME280_pressure;Samples;Min_cycle;Max_cycle;Signal;HPM_P1;HPM_P2
2024/03/17 00:01:41;;;;;;;;;;;7.60;80.20;;;;;;5004598;28;19930;-59
2024/03/17 00:22:13;;;;;;;;;;;7.50;79.90;;;;;;4978277;28;19936;-63
2024/03/17 00:24:45;;;;;;;;;;;7.40;80.10;;;;;;5005200;28;20020;-63
2024/03/17 00:27:13;;;;;;;;;;;7.40;80.00;;;;;;5005506;28;19989;-62
2024/03/17 00:29:45;;;;;;;;;;;7.40;80.20;;;;;;5005430;28;20406;-63
2024/03/17 00:32:18;;;;;;;;;;;7.40;80.10;;;;;;5005162;28;19926;-62
2024/03/17 00:34:50;;;;;;;;;;;7.40;80.10;;;;;;5006043;28;19980;-61
2024/03/17 00:37:25;;;;;;;;;;;7.40;80.20;;;;;;5006452;28;19932;-64
2024/03/17 00:39:57;;;;;;;;;;;7.40;80.20;;;;;;5004853;28;19937;-62
2024/03/17 00:42:30;;;;;;;;;;;7.40;80.20;;;;;;5006177;28;19929;-63
2024/03/17 00:44:56;;;;;;;;;;;7.40;80.10;;;;;;5006062;28;19936;-62
2024/03/17 00:47:30;;;;;;;;;;;7.40;80.20;;;;;;5006083;28;19932;-63
2024/03/17 00:50:04;;;;;;;;;;;7.40;80.10;;;;;;5004085;28;19930;-62
2024/03/17 00:52:38;;;;;;;;;;;7.40;80.20;;;;;;5001128;28;19925;-62
2024/03/17 00:55:11;;;;;;;;;;;7.40;80.20;;;;;;5005347;28;19929;-62
2024/03/17 00:57:44;;;;;;;;;;;7.40;80.10;;;;;;5004530;28;20292;-62
2024/03/17 01:00:17;;;;;;;;;;;7.40;80.30;;;;;;5005520;28;20412;-62
2024/03/17 01:02:50;;;;;;;;;;;7.30;80.30;;;;;;5005839;28;19925;-62
2024/03/17 01:05:22;;;;;;;;;;;7.30;80.20;;;;;;5005879;28;19930;-62
2024/03/17 01:07:57;;;;;;;;;;;7.20;80.10;;;;;;5002864;28;19937;-62
2024/03/17 01:10:29;;;;;;;;;;;7.10;80.20;;;;;;5004753;28;19929;-62
2024/03/17 01:13:02;;;;;;;;;;;7.20;80.10;;;;;;5004695;28;19929;-62
2024/03/17 01:15:35;;;;;;;;;;;7.10;80.20;;;;;;5004400;28;19955;-62
2024/03/17 01:18:09;;;;;;;;;;;7.10;80.10;;;;;;5004581;28;19944;-61
2024/03/17 01:20:41;;;;;;;;;;;7.00;80.20;;;;;;5005740;28;19937;-62
2024/03/17 01:23:15;;;;;;;;;;;7.00;80.20;;;;;;5008813;28;19979;-61
2024/03/17 01:25:48;;;;;;;;;;;7.00;80.30;;;;;;5007496;28;19972;-64
2024/03/17 01:28:21;;;;;;;;;;;6.90;80.40;;;;;;5008241;28;19926;-62
2024/03/17 01:30:48;;;;;;;;;;;6.90;80.40;;;;;;5009675;28;19925;-58
2024/03/17 01:33:21;;;;;;;;;;;6.90;80.40;;;;;;5009539;28;19926;-58
2024/03/17 01:35:54;;;;;;;;;;;6.90;80.60;;;;;;5005712;28;19929;-59
2024/03/17 01:38:28;;;;;;;;;;;6.80;80.60;;;;;;5008162;28;19930;-59
2024/03/17 01:41:01;;;;;;;;;;;6.90;80.70;;;;;;5009254;28;19945;-58
2024/03/17 01:43:35;;;;;;;;;;;6.80;80.70;;;;;;5008540;28;19925;-59
2024/03/17 01:46:10;;;;;;;;;;;6.80;80.60;;;;;;5009137;28;19961;-58
2024/03/17 01:48:44;;;;;;;;;;;6.80;80.70;;;;;;5009284;28;20756;-59
2024/03/17 01:51:16;;;;;;;;;;;6.80;80.90;;;;;;5008151;28;20024;-58
2024/03/17 01:53:51;;;;;;;;;;;6.80;81.00;;;;;;5008744;28;19926;-59
2024/03/17 01:56:24;;;;;;;;;;;6.80;80.90;;;;;;5007369;28;19926;-58
2024/03/17 01:58:57;;;;;;;;;;;6.80;80.90;;;;;;5009531;28;19933;-59
2024/03/17 02:01:23;;;;;;;;;;;6.70;81.10;;;;;;5010422;28;19984;-57
2024/03/17 02:03:57;;;;;;;;;;;6.70;81.10;;;;;;5010381;28;19935;-58
2024/03/17 02:06:30;;;;;;;;;;;6.70;81.10;;;;;;5010510;28;19932;-59
2024/03/17 02:09:05;;;;;;;;;;;6.70;81.20;;;;;;5009572;28;19930;-58
2024/03/17 02:11:38;;;;;;;;;;;6.70;81.30;;;;;;5009380;28;19937;-60
2024/03/17 02:14:13;;;;;;;;;;;6.70;81.30;;;;;;5008212;28;19925;-59
2024/03/17 02:16:45;;;;;;;;;;;6.60;81.30;;;;;;5009109;28;19937;-59
2024/03/17 02:19:19;;;;;;;;;;;6.60;81.40;;;;;;5009438;28;19929;-59
2024/03/17 02:21:57;;;;;;;;;;;6.60;81.40;;;;;;5009762;28;19925;-59
2024/03/17 02:24:32;;;;;;;;;;;6.50;81.40;;;;;;5007422;28;19933;-59
2024/03/17 02:27:05;;;;;;;;;;;6.50;81.40;;;;;;5008556;28;19936;-58
2024/03/17 02:29:37;;;;;;;;;;;6.40;81.40;;;;;;5009692;28;20316;-59
2024/03/17 02:32:17;;;;;;;;;;;6.40;81.30;;;;;;5009621;28;19968;-58
2024/03/17 02:34:49;;;;;;;;;;;6.40;81.40;;;;;;5009290;28;20376;-59
2024/03/17 02:37:23;;;;;;;;;;;6.40;81.30;;;;;;5009508;28;20556;-59
2024/03/17 02:39:56;;;;;;;;;;;6.40;81.40;;;;;;5006460;28;20036;-59
2024/03/17 02:42:29;;;;;;;;;;;6.40;81.20;;;;;;5010141;28;20646;-59
2024/03/17 02:45:03;;;;;;;;;;;6.40;81.10;;;;;;5008806;28;19980;-58
2024/03/17 02:47:36;;;;;;;;;;;6.40;81.10;;;;;;5009660;28;19987;-60
2024/03/17 02:50:10;;;;;;;;;;;6.30;81.10;;;;;;5009524;28;20036;-57
2024/03/17 02:52:42;;;;;;;;;;;6.30;81.10;;;;;;5007808;28;19961;-60
2024/03/17 02:55:17;;;;;;;;;;;6.20;81.20;;;;;;5005575;28;19929;-58
2024/03/17 02:57:50;;;;;;;;;;;6.20;81.10;;;;;;4996331;28;19922;-59
2024/03/17 03:00:19;;;;;;;;;;;6.10;81.20;;;;;;5008957;28;19940;-59
2024/03/17 03:02:52;;;;;;;;;;;6.10;81.30;;;;;;5009020;28;20016;-58
2024/03/17 03:05:25;;;;;;;;;;;6.10;81.20;;;;;;5009585;28;19936;-57
2024/03/17 03:07:58;;;;;;;;;;;6.10;81.20;;;;;;5007664;28;19929;-57
2024/03/17 03:10:35;;;;;;;;;;;6.10;81.20;;;;;;5008354;28;19996;-58
2024/03/17 03:13:08;;;;;;;;;;;6.00;81.20;;;;;;5006035;28;19933;-59
2024/03/17 03:15:42;;;;;;;;;;;6.00;81.20;;;;;;5005076;28;19925;-59
2024/03/17 03:18:10;;;;;;;;;;;6.00;81.20;;;;;;5007852;28;19940;-58
2024/03/17 03:24:07;;;;;;;;;;;5.90;81.30;;;;;;5002821;28;19932;-59
2024/03/17 03:27:14;;;;;;;;;;;5.80;81.10;;;;;;4983847;28;20442;-59
2024/03/17 03:29:49;;;;;;;;;;;5.80;81.50;;;;;;5009528;28;20012;-60
2024/03/17 03:32:15;;;;;;;;;;;5.80;81.30;;;;;;5005978;28;19960;-58
2024/03/17 03:34:48;;;;;;;;;;;5.70;81.20;;;;;;5007681;28;20007;-62
2024/03/17 03:37:21;;;;;;;;;;;5.70;81.10;;;;;;5009427;28;19964;-59
2024/03/17 03:39:54;;;;;;;;;;;5.70;81.00;;;;;;5008384;28;19943;-58
2024/03/17 03:42:23;;;;;;;;;;;5.70;81.10;;;;;;5008510;28;20285;-59
2024/03/17 03:44:56;;;;;;;;;;;5.60;81.10;;;;;;5006493;28;20335;-59
2024/03/17 03:47:29;;;;;;;;;;;5.60;81.10;;;;;;5007358;28;19932;-59
2024/03/17 03:50:03;;;;;;;;;;;5.50;81.00;;;;;;5008104;28;19925;-59
2024/03/17 03:52:36;;;;;;;;;;;5.50;81.00;;;;;;5006686;28;20052;-59
2024/03/17 03:55:10;;;;;;;;;;;5.50;80.90;;;;;;5008645;28;20028;-59
2024/03/17 03:57:47;;;;;;;;;;;5.40;81.10;;;;;;5002279;28;20020;-57
2024/03/17 04:00:22;;;;;;;;;;;5.40;81.20;;;;;;5005779;28;19955;-60
2024/03/17 04:02:54;;;;;;;;;;;5.40;81.30;;;;;;5004588;28;19929;-58
2024/03/17 04:05:28;;;;;;;;;;;5.40;81.50;;;;;;5008301;28;19937;-60
2024/03/17 04:08:02;;;;;;;;;;;5.40;81.30;;;;;;5007185;28;20653;-59
2024/03/17 04:10:36;;;;;;;;;;;5.40;81.30;;;;;;5007436;28;19937;-59
2024/03/17 04:13:11;;;;;;;;;;;5.30;81.20;;;;;;5007182;28;20295;-59
2024/03/17 04:15:44;;;;;;;;;;;5.30;81.20;;;;;;5003141;28;20021;-59
2024/03/17 04:18:18;;;;;;;;;;;5.30;81.30;;;;;;5003785;28;20415;-58
2024/03/17 04:20:51;;;;;;;;;;;5.30;81.20;;;;;;5006076;28;20369;-58
2024/03/17 04:23:24;;;;;;;;;;;5.30;81.20;;;;;;5007810;28;19929;-58
2024/03/17 04:25:58;;;;;;;;;;;5.20;81.10;;;;;;5008033;28;19940;-59
2024/03/17 04:28:32;;;;;;;;;;;5.20;80.90;;;;;;5008737;28;20426;-59
2024/03/17 04:31:05;;;;;;;;;;;5.20;81.10;;;;;;5008954;28;19925;-58
2024/03/17 04:33:38;;;;;;;;;;;5.10;81.30;;;;;;5009238;28;19932;-58
2024/03/17 04:36:13;;;;;;;;;;;5.10;81.10;;;;;;5008266;28;20035;-59
2024/03/17 04:38:47;;;;;;;;;;;5.10;81.10;;;;;;5008653;28;20016;-59
2024/03/17 04:41:20;;;;;;;;;;;5.10;81.30;;;;;;5009254;28;19926;-58
2024/03/17 04:43:55;;;;;;;;;;;5.00;81.10;;;;;;5008948;28;20024;-58
2024/03/17 04:46:28;;;;;;;;;;;5.00;81.20;;;;;;5008911;28;19937;-59
2024/03/17 04:49:03;;;;;;;;;;;5.00;81.20;;;;;;4996237;28;20305;-59
2024/03/17 04:51:36;;;;;;;;;;;4.90;81.10;;;;;;5008805;28;20269;-59
2024/03/17 04:54:09;;;;;;;;;;;4.90;81.10;;;;;;4998429;28;19933;-59
2024/03/17 04:56:43;;;;;;;;;;;4.90;81.30;;;;;;5007629;28;19971;-58
2024/03/17 04:59:17;;;;;;;;;;;4.80;81.20;;;;;;5007966;28;19926;-58
2024/03/17 05:01:50;;;;;;;;;;;4.80;81.20;;;;;;5008420;28;19930;-60
2024/03/17 05:04:16;;;;;;;;;;;4.80;81.10;;;;;;5008981;28;19936;-58
2024/03/17 05:06:50;;;;;;;;;;;4.80;81.20;;;;;;5003599;28;20007;-60
2024/03/17 05:09:24;;;;;;;;;;;4.80;81.30;;;;;;5008001;28;20086;-59
2024/03/17 05:11:57;;;;;;;;;;;4.80;81.40;;;;;;5008010;28;19929;-57
2024/03/17 05:14:31;;;;;;;;;;;4.80;81.60;;;;;;5008184;28;19933;-58
2024/03/17 05:17:05;;;;;;;;;;;4.80;81.70;;;;;;5008422;28;19930;-57
2024/03/17 05:19:38;;;;;;;;;;;4.70;81.90;;;;;;5008486;28;20373;-59
2024/03/17 05:22:11;;;;;;;;;;;4.80;81.90;;;;;;5004943;28;19964;-60
2024/03/17 05:24:45;;;;;;;;;;;4.70;82.00;;;;;;5006963;28;19983;-60
2024/03/17 05:27:18;;;;;;;;;;;4.70;82.20;;;;;;5008528;28;19936;-57
2024/03/17 05:29:46;;;;;;;;;;;4.70;82.30;;;;;;5008033;28;21955;-58
2024/03/17 05:32:20;;;;;;;;;;;4.70;82.40;;;;;;4992578;28;19934;-59
2024/03/17 05:34:54;;;;;;;;;;;4.80;82.60;;;;;;4996220;28;19933;-59
2024/03/17 05:37:27;;;;;;;;;;;4.80;82.70;;;;;;5007904;28;19969;-58
2024/03/17 05:40:01;;;;;;;;;;;4.80;82.80;;;;;;5005841;28;20404;-60
2024/03/17 05:42:34;;;;;;;;;;;4.90;82.80;;;;;;4994908;28;20008;-59
2024/03/17 05:45:10;;;;;;;;;;;4.90;82.90;;;;;;5007338;28;19964;-57
2024/03/17 05:47:44;;;;;;;;;;;4.80;82.70;;;;;;5003449;28;20539;-57
2024/03/17 05:50:17;;;;;;;;;;;4.90;83.00;;;;;;5006966;28;19934;-58
2024/03/17 05:52:51;;;;;;;;;;;5.00;82.90;;;;;;5006609;28;19930;-58
2024/03/17 05:55:24;;;;;;;;;;;5.00;83.10;;;;;;5007536;28;19948;-59
2024/03/17 05:57:57;;;;;;;;;;;5.00;83.20;;;;;;5007023;28;19933;-58
2024/03/17 06:00:31;;;;;;;;;;;5.00;83.10;;;;;;5006515;28;19933;-58
2024/03/17 06:03:05;;;;;;;;;;;5.00;83.50;;;;;;5004432;28;20003;-58
2024/03/17 06:05:40;;;;;;;;;;;5.20;83.60;;;;;;5007763;28;19929;-58
2024/03/17 06:08:14;;;;;;;;;;;5.20;83.50;;;;;;5001852;28;19944;-57
2024/03/17 06:10:47;;;;;;;;;;;5.10;83.50;;;;;;5009921;28;19933;-71
2024/03/17 06:13:21;;;;;;;;;;;5.20;83.50;;;;;;5010467;28;19925;-71
2024/03/17 06:16:00;;;;;;;;;;;5.20;83.70;;;;;;5007164;28;19930;-71
2024/03/17 06:18:34;;;;;;;;;;;5.20;83.50;;;;;;5010904;28;19929;-70
2024/03/17 06:21:09;;;;;;;;;;;5.30;83.50;;;;;;5009503;28;19969;-70
2024/03/17 06:23:42;;;;;;;;;;;5.30;83.60;;;;;;5010348;28;20288;-70
2024/03/17 06:26:15;;;;;;;;;;;5.30;83.70;;;;;;5009260;28;19933;-71
2024/03/17 06:28:51;;;;;;;;;;;5.40;83.40;;;;;;5012365;28;19932;-69
2024/03/17 06:31:25;;;;;;;;;;;5.40;83.50;;;;;;5007898;28;19983;-72
2024/03/17 06:33:59;;;;;;;;;;;5.40;83.60;;;;;;5008340;28;20042;-71
2024/03/17 06:36:33;;;;;;;;;;;5.50;83.60;;;;;;5010231;28;19936;-72
2024/03/17 06:38:59;;;;;;;;;;;5.50;83.80;;;;;;5007451;28;20351;-70
2024/03/17 06:41:33;;;;;;;;;;;5.50;83.70;;;;;;5009047;28;19929;-72
2024/03/17 06:44:06;;;;;;;;;;;5.50;83.60;;;;;;5009305;28;19929;-71
2024/03/17 06:46:41;;;;;;;;;;;5.50;83.70;;;;;;5010350;28;19975;-71
2024/03/17 06:49:15;;;;;;;;;;;5.40;84.10;;;;;;5006479;28;19929;-70
2024/03/17 06:51:48;;;;;;;;;;;5.50;83.90;;;;;;5009308;28;19934;-70
2024/03/17 06:54:22;;;;;;;;;;;5.50;84.10;;;;;;5009586;28;20369;-72
2024/03/17 06:56:56;;;;;;;;;;;5.60;83.80;;;;;;5009393;28;20381;-71
2024/03/17 06:59:29;;;;;;;;;;;5.70;83.40;;;;;;5008448;28;19948;-71
2024/03/17 07:02:03;;;;;;;;;;;5.70;83.20;;;;;;5008504;28;19929;-71
2024/03/17 07:04:37;;;;;;;;;;;5.80;83.10;;;;;;5008425;28;19926;-71
2024/03/17 07:07:10;;;;;;;;;;;5.90;82.70;;;;;;5007192;28;19926;-71
2024/03/17 07:09:43;;;;;;;;;;;5.90;82.90;;;;;;5009872;28;19955;-71
2024/03/17 07:12:16;;;;;;;;;;;6.00;82.70;;;;;;5009436;28;19973;-71
2024/03/17 07:14:50;;;;;;;;;;;6.10;82.90;;;;;;5006156;28;19929;-69
2024/03/17 07:17:25;;;;;;;;;;;6.10;82.90;;;;;;5008018;28;19940;-71
2024/03/17 07:19:59;;;;;;;;;;;6.20;82.70;;;;;;5009367;28;19929;-70
2024/03/17 07:22:32;;;;;;;;;;;6.20;82.40;;;;;;5008801;28;20020;-62
2024/03/17 07:25:06;;;;;;;;;;;6.20;82.10;;;;;;5007645;28;20364;-61
2024/03/17 07:27:39;;;;;;;;;;;6.20;82.50;;;;;;5009458;28;19929;-61
2024/03/17 07:30:12;;;;;;;;;;;6.30;82.60;;;;;;5009431;28;19929;-61
2024/03/17 07:32:47;;;;;;;;;;;6.30;82.70;;;;;;5008666;28;19987;-62
2024/03/17 07:35:21;;;;;;;;;;;6.40;82.00;;;;;;5006215;28;19929;-62
2024/03/17 07:37:55;;;;;;;;;;;6.50;82.60;;;;;;5007782;28;19953;-62
2024/03/17 07:40:34;;;;;;;;;;;6.60;82.50;;;;;;5009092;28;19926;-61
2024/03/17 07:43:11;;;;;;;;;;;6.70;82.40;;;;;;5007979;28;20020;-62
2024/03/17 07:45:46;;;;;;;;;;;6.70;82.40;;;;;;4999546;28;19956;-61
2024/03/17 07:48:23;;;;;;;;;;;6.70;81.90;;;;;;5008747;28;19926;-64
2024/03/17 07:50:56;;;;;;;;;;;6.80;82.20;;;;;;5005528;28;19931;-63
2024/03/17 07:53:30;;;;;;;;;;;6.90;82.00;;;;;;5008652;28;19936;-62
2024/03/17 07:56:04;;;;;;;;;;;7.00;81.80;;;;;;5008519;28;19933;-63
2024/03/17 07:58:45;;;;;;;;;;;7.00;81.80;;;;;;4996592;28;20332;-61
2024/03/17 08:01:19;;;;;;;;;;;7.10;81.80;;;;;;5006464;28;20388;-64
2024/03/17 08:03:55;;;;;;;;;;;7.10;81.60;;;;;;5007575;28;19925;-62
2024/03/17 08:06:29;;;;;;;;;;;7.20;81.60;;;;;;5008589;28;19926;-62
2024/03/17 08:09:02;;;;;;;;;;;7.30;81.30;;;;;;5007733;28;19964;-62
2024/03/17 08:11:35;;;;;;;;;;;7.40;81.10;;;;;;5007685;28;19968;-63
2024/03/17 08:14:08;;;;;;;;;;;7.30;80.90;;;;;;5008052;28;20424;-64
2024/03/17 08:16:41;;;;;;;;;;;7.40;80.90;;;;;;5006408;28;19929;-63
2024/03/17 08:19:15;;;;;;;;;;;7.50;80.90;;;;;;4997914;28;19925;-62
2024/03/17 08:21:49;;;;;;;;;;;7.50;80.80;;;;;;5007582;28;20427;-62
2024/03/17 08:24:22;;;;;;;;;;;7.70;80.70;;;;;;5007514;28;20000;-62
2024/03/17 08:26:55;;;;;;;;;;;7.70;80.40;;;;;;5006783;28;19930;-61
2024/03/17 08:29:28;;;;;;;;;;;7.80;80.10;;;;;;5008245;28;19971;-63
2024/03/17 08:32:01;;;;;;;;;;;8.00;79.90;;;;;;5007941;28;20024;-68
2024/03/17 08:34:35;;;;;;;;;;;8.10;79.60;;;;;;5005013;28;19976;-71
2024/03/17 08:37:11;;;;;;;;;;;8.30;79.30;;;;;;5007154;28;20029;-71
2024/03/17 08:39:44;;;;;;;;;;;8.50;78.90;;;;;;5008008;28;19929;-70
2024/03/17 08:42:17;;;;;;;;;;;8.60;78.20;;;;;;5010113;28;19972;-71
2024/03/17 08:44:51;;;;;;;;;;;8.70;77.40;;;;;;4997286;28;20456;-71
2024/03/17 08:47:24;;;;;;;;;;;8.80;76.90;;;;;;5010407;28;19925;-73
2024/03/17 08:50:03;;;;;;;;;;;8.90;76.40;;;;;;5007529;28;19925;-71
2024/03/17 08:52:37;;;;;;;;;;;9.10;76.30;;;;;;5007335;28;19935;-73
2024/03/17 08:55:13;;;;;;;;;;;9.20;75.50;;;;;;5007874;28;19929;-70
2024/03/17 08:57:47;;;;;;;;;;;9.40;75.30;;;;;;5007127;28;20008;-70
2024/03/17 09:00:21;;;;;;;;;;;9.60;75.20;;;;;;5005072;28;20385;-71
2024/03/17 09:02:55;;;;;;;;;;;9.70;75.00;;;;;;5005625;28;20397;-70
2024/03/17 09:05:29;;;;;;;;;;;9.80;74.40;;;;;;5007641;28;19983;-70
2024/03/17 09:08:03;;;;;;;;;;;10.00;73.90;;;;;;5006727;28;19926;-71
2024/03/17 09:10:39;;;;;;;;;;;10.20;73.40;;;;;;5006532;28;19925;-71
2024/03/17 09:13:14;;;;;;;;;;;10.40;72.70;;;;;;5006733;28;19999;-71
2024/03/17 09:15:54;;;;;;;;;;;10.60;72.50;;;;;;5006508;28;20280;-71
2024/03/17 09:18:27;;;;;;;;;;;10.80;71.50;;;;;;4996460;28;19940;-72
2024/03/17 09:21:03;;;;;;;;;;;11.00;71.50;;;;;;5006405;28;19983;-68
2024/03/17 09:23:38;;;;;;;;;;;11.20;70.90;;;;;;5005627;28;19933;-71
2024/03/17 09:26:13;;;;;;;;;;;11.40;70.20;;;;;;4995775;28;19925;-71
2024/03/17 09:28:47;;;;;;;;;;;11.40;70.20;;;;;;5007060;28;20026;-72
2024/03/17 09:31:21;;;;;;;;;;;11.60;69.20;;;;;;5000241;28;19930;-71
2024/03/17 09:33:48;;;;;;;;;;;11.50;68.60;;;;;;5008436;28;19929;-71
2024/03/17 09:36:23;;;;;;;;;;;11.60;67.90;;;;;;5006262;28;19929;-71
2024/03/17 09:38:57;;;;;;;;;;;11.60;67.80;;;;;;5004583;28;19933;-71
2024/03/17 09:41:31;;;;;;;;;;;11.50;67.90;;;;;;5008447;28;19929;-56
2024/03/17 09:44:06;;;;;;;;;;;11.50;68.20;;;;;;5010038;28;19929;-56
2024/03/17 09:46:40;;;;;;;;;;;11.50;68.20;;;;;;5011215;28;20048;-56
2024/03/17 09:49:15;;;;;;;;;;;11.60;68.40;;;;;;5010562;28;19929;-57
2024/03/17 09:51:53;;;;;;;;;;;11.60;67.60;;;;;;5010086;28;19964;-58
2024/03/17 09:54:27;;;;;;;;;;;11.60;66.60;;;;;;5007837;28;20380;-57
2024/03/17 09:56:54;;;;;;;;;;;11.70;65.70;;;;;;5010496;28;19928;-56
2024/03/17 09:59:27;;;;;;;;;;;11.70;64.40;;;;;;5010176;28;19954;-57
2024/03/17 10:02:00;;;;;;;;;;;11.70;65.30;;;;;;5009691;28;20040;-57
2024/03/17 10:04:34;;;;;;;;;;;11.70;64.50;;;;;;5010990;28;20012;-57
2024/03/17 10:07:08;;;;;;;;;;;11.70;63.70;;;;;;5009864;28;20031;-57
2024/03/17 10:09:44;;;;;;;;;;;11.80;63.80;;;;;;5010708;28;19926;-58
2024/03/17 10:12:26;;;;;;;;;;;11.90;64.00;;;;;;5008214;28;20044;-56
2024/03/17 10:15:00;;;;;;;;;;;12.10;64.50;;;;;;5009395;28;19933;-57
2024/03/17 10:17:36;;;;;;;;;;;12.20;63.80;;;;;;5007557;28;20045;-57
2024/03/17 10:20:13;;;;;;;;;;;12.40;64.00;;;;;;5007263;28;20344;-58
2024/03/17 10:23:03;;;;;;;;;;;12.60;63.30;;;;;;5010290;28;19953;-58
2024/03/17 10:25:39;;;;;;;;;;;12.70;63.80;;;;;;5010299;28;20655;-57
2024/03/17 10:28:14;;;;;;;;;;;12.90;62.40;;;;;;5008934;28;19929;-57
2024/03/17 10:30:58;;;;;;;;;;;13.00;62.50;;;;;;5009961;28;20032;-57
2024/03/17 10:33:31;;;;;;;;;;;13.10;62.60;;;;;;5001356;28;19985;-60
2024/03/17 10:36:05;;;;;;;;;;;13.10;61.90;;;;;;5007583;28;20706;-57
2024/03/17 10:38:52;;;;;;;;;;;13.10;61.70;;;;;;5008639;28;19933;-57
2024/03/17 10:41:26;;;;;;;;;;;13.10;61.60;;;;;;5009509;28;20372;-57
2024/03/17 10:43:59;;;;;;;;;;;13.20;61.50;;;;;;5009262;28;19983;-57
2024/03/17 10:46:32;;;;;;;;;;;13.20;62.20;;;;;;5008650;28;20381;-58
2024/03/17 10:49:06;;;;;;;;;;;13.20;61.20;;;;;;5008528;28;20399;-58
2024/03/17 10:51:39;;;;;;;;;;;13.10;61.20;;;;;;5007927;28;19983;-60
2024/03/17 10:54:18;;;;;;;;;;;13.10;60.70;;;;;;5008131;28;19979;-61
2024/03/17 10:56:52;;;;;;;;;;;13.10;60.80;;;;;;5009732;28;20427;-60
2024/03/17 10:59:29;;;;;;;;;;;13.10;60.80;;;;;;5009312;28;19976;-62
2024/03/17 11:02:03;;;;;;;;;;;13.20;60.60;;;;;;5008882;28;19956;-61
2024/03/17 11:04:37;;;;;;;;;;;13.30;60.90;;;;;;5008606;28;19937;-61
2024/03/17 11:07:16;;;;;;;;;;;13.30;60.60;;;;;;4994041;28;20004;-60
2024/03/17 11:09:52;;;;;;;;;;;13.50;60.40;;;;;;4987691;28;20012;-61
2024/03/17 11:12:45;;;;;;;;;;;13.50;60.40;;;;;;4988662;28;19929;-61
2024/03/17 11:15:37;;;;;;;;;;;13.60;60.80;;;;;;4989358;28;20392;-59
2024/03/17 11:18:26;;;;;;;;;;;13.60;60.50;;;;;;4986865;28;19933;-61
2024/03/17 11:21:01;;;;;;;;;;;13.60;60.50;;;;;;4972332;28;19929;-60
2024/03/17 11:23:38;;;;;;;;;;;13.70;60.40;;;;;;4989242;28;20016;-61
2024/03/17 11:26:26;;;;;;;;;;;13.70;60.80;;;;;;4988288;28;19926;-61
2024/03/17 11:29:01;;;;;;;;;;;13.80;59.20;;;;;;4983852;28;19925;-62
2024/03/17 11:31:40;;;;;;;;;;;13.90;59.90;;;;;;4988855;28;20270;-61
2024/03/17 11:34:33;;;;;;;;;;;14.00;59.50;;;;;;4996328;28;19933;-61
2024/03/17 11:37:09;;;;;;;;;;;14.00;59.00;;;;;;5007215;28;20013;-62
2024/03/17 11:39:53;;;;;;;;;;;14.20;59.70;;;;;;5009072;28;19940;-61
2024/03/17 11:42:28;;;;;;;;;;;14.20;59.40;;;;;;4995766;28;19932;-59
2024/03/17 11:45:01;;;;;;;;;;;14.20;59.10;;;;;;5008566;28;19965;-61
2024/03/17 11:47:35;;;;;;;;;;;14.30;58.70;;;;;;5005239;28;20152;-61
2024/03/17 11:50:15;;;;;;;;;;;14.30;57.80;;;;;;5008518;28;19929;-60
2024/03/17 11:52:57;;;;;;;;;;;14.30;57.80;;;;;;5008344;28;19932;-62
2024/03/17 11:55:31;;;;;;;;;;;14.20;57.50;;;;;;5006732;28;19926;-60
2024/03/17 11:58:05;;;;;;;;;;;14.20;57.40;;;;;;5007559;28;19926;-62
2024/03/17 12:00:41;;;;;;;;;;;14.20;57.60;;;;;;5007455;28;19929;-74
2024/03/17 12:03:13;;;;;;;;;;;14.20;57.10;;;;;;5007197;28;20309;-73
2024/03/17 12:05:46;;;;;;;;;;;14.20;57.20;;;;;;5005811;28;19925;-73
2024/03/17 12:08:19;;;;;;;;;;;14.30;57.60;;;;;;5009224;28;19933;-74
2024/03/17 12:10:53;;;;;;;;;;;14.30;57.30;;;;;;5007799;28;19976;-73
2024/03/17 12:13:35;;;;;;;;;;;14.30;57.30;;;;;;5006174;28;19925;-75
2024/03/17 12:16:13;;;;;;;;;;;14.30;56.90;;;;;;5006983;28;20024;-76
2024/03/17 12:18:47;;;;;;;;;;;14.30;57.00;;;;;;5003664;28;20022;-72
2024/03/17 12:21:19;;;;;;;;;;;14.30;57.20;;;;;;4997405;28;19927;-75
2024/03/17 12:23:46;;;;;;;;;;;14.30;57.70;;;;;;5008238;28;19925;-76
2024/03/17 12:26:47;;;;;;;;;;;14.20;56.80;;;;;;5008034;28;20032;-71
2024/03/17 12:29:27;;;;;;;;;;;14.20;56.50;;;;;;5006630;28;19925;-73
2024/03/17 12:32:02;;;;;;;;;;;14.30;57.00;;;;;;5007372;28;19933;-74
2024/03/17 12:34:34;;;;;;;;;;;14.30;57.30;;;;;;5007827;28;19984;-72
2024/03/17 12:37:08;;;;;;;;;;;14.30;56.00;;;;;;5006480;28;20005;-73
2024/03/17 12:39:41;;;;;;;;;;;14.40;56.70;;;;;;5006184;28;19971;-71
2024/03/17 12:42:14;;;;;;;;;;;14.40;56.20;;;;;;5007025;28;19931;-76
2024/03/17 12:44:49;;;;;;;;;;;14.40;55.90;;;;;;5007834;28;19957;-72
2024/03/17 12:47:23;;;;;;;;;;;14.40;56.60;;;;;;5006718;28;20292;-73
2024/03/17 12:49:56;;;;;;;;;;;14.50;56.20;;;;;;5007260;28;19937;-74
2024/03/17 12:52:55;;;;;;;;;;;14.50;56.30;;;;;;5006582;28;19930;-71
2024/03/17 13:01:13;;;;;;;;;;;14.60;55.80;;;;;;5006178;28;19948;-74
2024/03/17 13:03:49;;;;;;;;;;;14.60;55.50;;;;;;5007482;28;19936;-72
2024/03/17 13:06:25;;;;;;;;;;;14.50;55.70;;;;;;5007900;28;19929;-72
2024/03/17 13:08:58;;;;;;;;;;;14.60;56.20;;;;;;5006285;28;19933;-69
2024/03/17 13:11:31;;;;;;;;;;;14.60;56.30;;;;;;5007241;28;20020;-61
2024/03/17 13:14:04;;;;;;;;;;;14.60;56.50;;;;;;5005281;28;19932;-62
2024/03/17 13:16:38;;;;;;;;;;;14.60;56.60;;;;;;5002919;28;19936;-61
2024/03/17 13:19:24;;;;;;;;;;;14.60;56.00;;;;;;5009929;28;19929;-61
2024/03/17 13:21:58;;;;;;;;;;;14.60;55.90;;;;;;5010440;28;19925;-60
2024/03/17 13:24:32;;;;;;;;;;;14.60;56.00;;;;;;5007241;28;19941;-59
2024/03/17 13:27:06;;;;;;;;;;;14.60;56.10;;;;;;5010716;28;19930;-61
2024/03/17 13:29:39;;;;;;;;;;;14.60;56.60;;;;;;5011058;28;19933;-61
2024/03/17 13:32:13;;;;;;;;;;;14.70;56.40;;;;;;5010120;28;19934;-60
2024/03/17 13:34:47;;;;;;;;;;;14.70;56.00;;;;;;5010637;28;20343;-61
2024/03/17 13:37:21;;;;;;;;;;;14.60;56.00;;;;;;5010469;28;19961;-61
2024/03/17 13:39:55;;;;;;;;;;;14.60;56.60;;;;;;5009316;28;20288;-59
2024/03/17 13:42:29;;;;;;;;;;;14.70;56.30;;;;;;5010176;28;19929;-60
2024/03/17 13:45:02;;;;;;;;;;;14.80;56.40;;;;;;5010368;28;19929;-61
2024/03/17 13:47:36;;;;;;;;;;;14.80;56.40;;;;;;5007971;28;19933;-61
2024/03/17 13:50:12;;;;;;;;;;;14.80;55.70;;;;;;5010248;28;19964;-62
2024/03/17 13:52:46;;;;;;;;;;;14.90;56.00;;;;;;5009092;28;19988;-62
2024/03/17 13:55:20;;;;;;;;;;;14.90;55.90;;;;;;5009696;28;19976;-60
2024/03/17 13:58:12;;;;;;;;;;;14.80;55.70;;;;;;5005522;28;19933;-60
2024/03/17 14:00:45;;;;;;;;;;;14.80;55.50;;;;;;5008744;28;19933;-61
2024/03/17 14:03:20;;;;;;;;;;;14.70;55.40;;;;;;5010319;28;19936;-61
2024/03/17 14:05:54;;;;;;;;;;;14.80;55.60;;;;;;5008885;28;19929;-59
2024/03/17 14:08:27;;;;;;;;;;;14.80;55.90;;;;;;5008767;28;19926;-61
2024/03/17 14:11:00;;;;;;;;;;;14.70;56.10;;;;;;5010151;28;19933;-60
2024/03/17 14:13:55;;;;;;;;;;;14.70;54.70;;;;;;5007872;28;19933;-60
2024/03/17 14:16:31;;;;;;;;;;;14.60;54.70;;;;;;5009725;28;20008;-61
2024/03/17 14:19:07;;;;;;;;;;;14.70;54.90;;;;;;5008894;28;20669;-60
2024/03/17 14:21:40;;;;;;;;;;;14.60;53.80;;;;;;5009465;28;20397;-75
2024/03/17 14:24:13;;;;;;;;;;;14.70;55.10;;;;;;5008154;28;21204;-74
2024/03/17 14:26:46;;;;;;;;;;;14.70;54.40;;;;;;5005198;28;19934;-71
2024/03/17 14:29:19;;;;;;;;;;;14.70;54.10;;;;;;5007847;28;19929;-72
2024/03/17 14:31:52;;;;;;;;;;;14.70;54.00;;;;;;5009838;28;19933;-77
2024/03/17 14:34:33;;;;;;;;;;;14.70;53.90;;;;;;5009946;28;20287;-71
2024/03/17 14:37:06;;;;;;;;;;;14.70;54.50;;;;;;5008368;28;20416;-73
2024/03/17 14:39:40;;;;;;;;;;;14.60;54.60;;;;;;5009732;28;19936;-72
2024/03/17 14:42:13;;;;;;;;;;;14.60;54.70;;;;;;5009039;28;19937;-73
2024/03/17 14:44:47;;;;;;;;;;;14.60;54.70;;;;;;5008172;28;20020;-72
2024/03/17 14:47:20;;;;;;;;;;;14.70;54.80;;;;;;5009984;28;19980;-75
2024/03/17 14:49:48;;;;;;;;;;;14.60;55.00;;;;;;5009489;28;19937;-71
2024/03/17 14:52:21;;;;;;;;;;;14.60;53.80;;;;;;5007565;28;19937;-75
2024/03/17 14:54:56;;;;;;;;;;;14.60;54.10;;;;;;5008934;28;20043;-73
2024/03/17 14:57:29;;;;;;;;;;;14.60;54.00;;;;;;5008667;28;20346;-72
2024/03/17 15:00:02;;;;;;;;;;;14.60;54.60;;;;;;5006403;28;20024;-76
2024/03/17 15:02:35;;;;;;;;;;;14.50;54.60;;;;;;5008106;28;19936;-72
2024/03/17 15:05:10;;;;;;;;;;;14.50;54.70;;;;;;5008816;28;19936;-73
2024/03/17 15:07:43;;;;;;;;;;;14.40;54.40;;;;;;5009007;28;19929;-73
2024/03/17 15:10:20;;;;;;;;;;;14.40;54.80;;;;;;4986073;28;19948;-74
2024/03/17 15:12:53;;;;;;;;;;;14.40;55.10;;;;;;4988882;28;20206;-72
2024/03/17 15:15:28;;;;;;;;;;;14.40;55.40;;;;;;4989435;28;19984;-73
2024/03/17 15:18:01;;;;;;;;;;;14.30;55.80;;;;;;4987428;28;19934;-72
2024/03/17 15:20:35;;;;;;;;;;;14.30;55.30;;;;;;4988882;28;20023;-73
2024/03/17 15:23:09;;;;;;;;;;;14.20;56.10;;;;;;4987447;28;20496;-76
2024/03/17 15:25:42;;;;;;;;;;;14.20;55.60;;;;;;4989276;28;20319;-75
2024/03/17 15:28:15;;;;;;;;;;;14.20;55.30;;;;;;5007451;28;19971;-72
2024/03/17 15:30:55;;;;;;;;;;;14.10;55.10;;;;;;5008319;28;19926;-66
2024/03/17 15:33:28;;;;;;;;;;;14.10;54.60;;;;;;5008652;28;20431;-65